createdAt,value
2022-08-26T00:00:11.124Z,17.15
2022-08-26T00:02:41.335Z,14.35
2022-08-26T00:05:09.882Z,13.65
2022-08-26T00:07:37.843Z,26.08
2022-08-26T00:10:07.528Z,24.10
2022-08-26T00:12:37.435Z,31.10
2022-08-26T00:15:10.789Z,21.23
2022-08-26T00:17:40.326Z,17.67
2022-08-26T00:20:14.030Z,13.98
2022-08-26T00:22:42.563Z,18.20
2022-08-26T00:25:13.095Z,16.00
2022-08-26T00:27:43.938Z,15.45
2022-08-26T00:30:17.411Z,14.73
2022-08-26T00:32:50.764Z,15.00
2022-08-26T00:35:20.644Z,17.35
2022-08-26T00:37:48.691Z,15.05
2022-08-26T00:40:22.204Z,20.00
2022-08-26T00:42:50.071Z,17.80
2022-08-26T00:45:19.354Z,23.27
2022-08-26T00:47:51.233Z,25.63
2022-08-26T00:50:26.856Z,15.90
2022-08-26T00:52:58.576Z,19.02
2022-08-26T00:55:38.254Z,17.83
2022-08-26T00:58:09.393Z,17.05
2022-08-26T01:00:37.386Z,21.38
2022-08-26T01:03:05.806Z,20.10
2022-08-26T01:05:42.485Z,20.90
2022-08-26T01:08:10.295Z,15.10
2022-08-26T01:10:38.183Z,20.90
2022-08-26T01:13:11.861Z,16.80
2022-08-26T01:15:45.896Z,19.50
2022-08-26T01:18:15.985Z,17.08
2022-08-26T01:20:58.100Z,18.38
2022-08-26T01:23:57.700Z,15.00
2022-08-26T01:26:31.380Z,22.17
2022-08-26T01:29:05.245Z,14.95
2022-08-26T01:31:39.473Z,17.20
2022-08-26T01:34:16.583Z,16.60
2022-08-26T01:36:51.041Z,18.83
2022-08-26T01:39:21.545Z,17.50
2022-08-26T01:41:54.351Z,16.50
2022-08-26T01:44:28.788Z,12.30
2022-08-26T01:47:00.231Z,15.68
2022-08-26T01:49:29.692Z,17.92
2022-08-26T01:52:00.534Z,18.65
2022-08-26T01:54:29.874Z,16.23
2022-08-26T01:56:58.824Z,14.75
2022-08-26T01:59:27.196Z,14.57
2022-08-26T02:01:55.404Z,24.35
2022-08-26T02:04:30.924Z,17.27
2022-08-26T02:06:59.654Z,16.80
2022-08-26T02:09:29.589Z,15.43
2022-08-26T02:12:01.642Z,17.50
2022-08-26T02:14:35.679Z,18.17
2022-08-26T02:17:12.891Z,20.15
2022-08-26T02:19:46.152Z,17.40
2022-08-26T02:22:19.795Z,18.17
2022-08-26T02:24:52.911Z,19.85
2022-08-26T02:27:24.724Z,16.15
2022-08-26T02:29:59.594Z,20.30
2022-08-26T02:32:29.172Z,15.52
2022-08-26T02:34:57.028Z,20.13
2022-08-26T02:37:30.244Z,19.50
2022-08-26T02:39:59.694Z,14.20
2022-08-26T02:42:28.401Z,16.83
2022-08-26T02:44:56.405Z,21.48
2022-08-26T02:47:25.324Z,19.92
2022-08-26T02:49:56.921Z,19.92
2022-08-26T02:52:25.387Z,20.02
2022-08-26T02:54:53.607Z,19.75
2022-08-26T02:57:22.932Z,16.40
2022-08-26T02:59:52.280Z,16.17
2022-08-26T03:02:21.396Z,19.77
2022-08-26T03:04:57.911Z,19.45
2022-08-26T03:07:30.039Z,21.90
2022-08-26T03:09:58.042Z,17.30
2022-08-26T03:12:27.798Z,15.93
2022-08-26T03:14:56.306Z,21.02
2022-08-26T03:17:24.509Z,21.08
2022-08-26T03:19:57.363Z,17.42
2022-08-26T03:22:27.011Z,18.98
2022-08-26T03:24:55.495Z,18.73
2022-08-26T03:27:23.365Z,18.08
2022-08-26T03:30:11.895Z,19.08
2022-08-26T03:32:41.402Z,15.25
2022-08-26T03:35:10.538Z,23.13
2022-08-26T03:37:38.697Z,15.73
2022-08-26T03:40:10.384Z,21.23
2022-08-26T03:42:39.983Z,17.75
2022-08-26T03:45:11.970Z,23.60
2022-08-26T03:47:40.671Z,22.77
2022-08-26T03:50:14.069Z,25.05
2022-08-26T03:52:44.024Z,18.80
2022-08-26T03:55:12.830Z,19.08
2022-08-26T03:57:42.021Z,19.38
2022-08-26T04:00:18.431Z,20.20
2022-08-26T04:02:53.230Z,18.92
2022-08-26T04:05:23.982Z,24.63
2022-08-26T04:07:52.518Z,19.50
2022-08-26T04:10:28.612Z,17.88
2022-08-26T04:12:59.269Z,24.20
2022-08-26T04:15:29.316Z,23.65
2022-08-26T04:17:57.686Z,18.88
2022-08-26T04:20:26.315Z,18.73
2022-08-26T04:22:54.489Z,17.52
2022-08-26T04:25:22.566Z,23.55
2022-08-26T04:27:52.186Z,15.98
2022-08-26T04:30:21.203Z,18.95
2022-08-26T04:32:50.774Z,22.73
2022-08-26T04:35:20.914Z,23.48
2022-08-26T04:37:53.392Z,21.05
2022-08-26T04:40:21.700Z,17.23
2022-08-26T04:42:50.249Z,19.58
2022-08-26T04:45:19.352Z,21.95
2022-08-26T04:47:56.244Z,19.13
2022-08-26T04:50:25.718Z,17.00
2022-08-26T04:52:55.374Z,26.00
2022-08-26T04:55:25.270Z,23.15
2022-08-26T04:58:08.750Z,18.23
2022-08-26T05:00:39.429Z,18.35
2022-08-26T05:03:10.270Z,22.65
2022-08-26T05:05:41.123Z,21.42
2022-08-26T05:08:09.975Z,17.92
2022-08-26T05:10:41.971Z,18.77
2022-08-26T05:13:15.458Z,21.00
2022-08-26T05:15:44.998Z,20.02
2022-08-26T05:18:17.365Z,20.50
2022-08-26T05:20:51.710Z,20.65
2022-08-26T05:23:23.461Z,19.55
2022-08-26T05:25:58.922Z,18.48
2022-08-26T05:28:29.645Z,19.75
2022-08-26T05:30:57.846Z,24.80
2022-08-26T05:33:27.209Z,22.13
2022-08-26T05:35:55.056Z,18.13
2022-08-26T05:38:23.397Z,22.85
2022-08-26T05:40:53.193Z,28.95
2022-08-26T05:43:22.469Z,22.20
2022-08-26T05:45:51.971Z,18.63
2022-08-26T05:48:22.841Z,25.55
2022-08-26T05:50:54.463Z,21.30
2022-08-26T05:53:26.120Z,24.50
2022-08-26T05:55:56.591Z,22.20
2022-08-26T05:58:27.498Z,22.58
2022-08-26T06:01:02.940Z,20.88
2022-08-26T06:03:33.336Z,22.98
2022-08-26T06:06:07.385Z,21.73
2022-08-26T06:08:36.606Z,23.45
2022-08-26T06:11:08.036Z,20.38
2022-08-26T06:13:47.261Z,24.38
2022-08-26T06:16:19.462Z,21.02
2022-08-26T06:18:50.630Z,25.38
2022-08-26T06:21:23.361Z,23.50
2022-08-26T06:24:13.581Z,23.83
2022-08-26T06:26:43.879Z,22.90
2022-08-26T06:29:24.046Z,20.77
2022-08-26T06:31:53.638Z,25.55
2022-08-26T06:34:21.626Z,22.70
2022-08-26T06:36:52.236Z,22.27
2022-08-26T06:39:21.046Z,22.95
2022-08-26T06:41:49.565Z,19.67
2022-08-26T06:44:17.447Z,23.65
2022-08-26T06:46:45.927Z,27.15
2022-08-26T06:49:18.364Z,22.65
2022-08-26T06:51:58.222Z,20.48
2022-08-26T06:54:26.904Z,26.48
2022-08-26T06:56:56.778Z,25.75
2022-08-26T06:59:24.890Z,23.27
2022-08-26T07:01:53.336Z,29.15
2022-08-26T07:04:23.076Z,22.08
2022-08-26T07:06:53.821Z,24.05
2022-08-26T07:09:26.346Z,20.15
2022-08-26T07:11:56.139Z,19.30
2022-08-26T07:14:25.259Z,24.52
2022-08-26T07:16:54.721Z,19.17
2022-08-26T07:19:30.929Z,18.75
2022-08-26T07:22:02.074Z,24.27
2022-08-26T07:24:32.248Z,19.25
2022-08-26T07:27:02.773Z,23.52
2022-08-26T07:29:31.247Z,21.83
2022-08-26T07:31:59.935Z,25.42
2022-08-26T07:34:27.965Z,25.27
2022-08-26T07:36:57.007Z,25.23
2022-08-26T07:39:25.957Z,17.10
2022-08-26T07:41:55.274Z,17.58
2022-08-26T07:44:24.038Z,22.23
2022-08-26T07:46:53.339Z,36.42
2022-08-26T07:49:22.917Z,25.23
2022-08-26T07:51:51.858Z,21.67
2022-08-26T07:54:20.623Z,30.85
2022-08-26T07:56:56.492Z,20.10
2022-08-26T07:59:24.819Z,24.67
2022-08-26T08:01:52.893Z,19.60
2022-08-26T08:04:26.070Z,20.40
2022-08-26T08:06:55.033Z,24.65
2022-08-26T08:09:24.737Z,23.48
2022-08-26T08:11:53.827Z,19.85
2022-08-26T08:14:23.252Z,19.67
2022-08-26T08:16:54.866Z,18.92
2022-08-26T08:19:23.765Z,18.92
2022-08-26T08:21:55.211Z,24.15
2022-08-26T08:24:23.091Z,20.92
2022-08-26T08:27:23.897Z,22.23
2022-08-26T08:29:55.134Z,18.88
2022-08-26T08:32:23.957Z,19.95
2022-08-26T08:34:51.856Z,15.27
2022-08-26T08:37:20.088Z,19.83
2022-08-26T08:39:48.974Z,25.10
2022-08-26T08:42:45.342Z,24.27
2022-08-26T08:45:22.728Z,16.50
2022-08-26T08:47:56.280Z,19.73
2022-08-26T08:50:29.986Z,33.72
2022-08-26T08:53:22.659Z,22.88
2022-08-26T08:56:04.828Z,24.55
2022-08-26T08:58:52.421Z,24.67
2022-08-26T09:01:36.110Z,21.13
2022-08-26T09:04:32.062Z,26.80
2022-08-26T09:07:03.715Z,26.50
2022-08-26T09:09:39.327Z,25.38
2022-08-26T09:12:16.038Z,21.65
2022-08-26T09:14:45.124Z,30.30
2022-08-26T09:17:26.999Z,22.15
2022-08-26T09:20:07.958Z,21.75
2022-08-26T09:22:40.065Z,26.13
2022-08-26T09:25:15.723Z,21.95
2022-08-26T09:27:47.712Z,16.98
2022-08-26T09:30:27.047Z,22.52
2022-08-26T09:33:10.142Z,22.13
2022-08-26T09:35:42.879Z,24.83
2022-08-26T09:38:26.702Z,22.02
2022-08-26T09:40:59.148Z,19.50
2022-08-26T09:43:29.032Z,23.65
2022-08-26T09:46:15.448Z,19.42
2022-08-26T09:48:44.787Z,22.33
2022-08-26T09:51:31.046Z,27.98
2022-08-26T09:54:02.676Z,20.67
2022-08-26T09:56:34.397Z,25.85
2022-08-26T09:59:04.628Z,24.73
2022-08-26T10:01:41.896Z,25.33
2022-08-26T10:04:14.907Z,25.55
2022-08-26T10:06:57.330Z,22.25
2022-08-26T10:09:28.163Z,28.10
2022-08-26T10:12:01.862Z,21.90
2022-08-26T10:14:36.323Z,21.48
2022-08-26T10:17:12.109Z,29.60
2022-08-26T10:19:56.791Z,28.90
2022-08-26T10:22:36.183Z,24.33
2022-08-26T10:25:12.959Z,24.58
2022-08-26T10:27:53.382Z,31.25
2022-08-26T10:30:28.529Z,28.38
2022-08-26T10:33:05.682Z,21.30
2022-08-26T10:35:44.011Z,23.00
2022-08-26T10:38:19.494Z,22.02
2022-08-26T10:40:58.959Z,27.90
2022-08-26T10:43:31.617Z,25.13
2022-08-26T10:46:06.929Z,23.85
2022-08-26T10:48:44.846Z,20.90
2022-08-26T10:51:17.523Z,25.83
2022-08-26T10:53:58.207Z,18.92
2022-08-26T10:56:42.576Z,21.98
2022-08-26T10:59:19.601Z,21.90
2022-08-26T11:01:58.582Z,28.60
2022-08-26T11:04:48.198Z,26.65
2022-08-26T11:07:43.832Z,18.45
2022-08-26T11:10:58.865Z,22.48
2022-08-26T11:14:02.030Z,21.60
2022-08-26T11:16:37.264Z,24.40
2022-08-26T11:19:58.938Z,26.45
2022-08-26T11:22:28.596Z,23.77
2022-08-26T11:25:13.575Z,23.15
2022-08-26T11:28:05.078Z,22.17
2022-08-26T11:30:56.830Z,17.20
2022-08-26T11:33:57.934Z,22.63
2022-08-26T11:36:59.016Z,19.95
2022-08-26T11:39:36.913Z,27.83
2022-08-26T11:42:33.163Z,21.02
2022-08-26T11:45:18.086Z,17.15
2022-08-26T11:47:46.874Z,11.75
2022-08-26T11:50:23.324Z,6.25
2022-08-26T11:53:01.565Z,8.10
2022-08-26T11:55:30.849Z,8.45
2022-08-26T11:58:04.859Z,12.45
2022-08-26T12:00:53.091Z,5.43
2022-08-26T12:03:26.788Z,7.78
2022-08-26T12:05:55.490Z,10.00
2022-08-26T12:08:31.082Z,14.65
2022-08-26T12:11:09.413Z,13.20
2022-08-26T12:13:39.172Z,16.85
2022-08-26T12:16:08.927Z,12.68
2022-08-26T12:18:39.889Z,13.35
2022-08-26T12:21:24.378Z,10.27
2022-08-26T12:23:55.802Z,6.68
2022-08-26T12:26:28.915Z,6.93
2022-08-26T12:29:02.297Z,9.10
2022-08-26T12:31:44.862Z,5.43
2022-08-26T12:34:18.452Z,8.95
2022-08-26T12:36:50.728Z,8.32
2022-08-26T12:39:28.116Z,6.55
2022-08-26T12:41:58.408Z,8.95
2022-08-26T12:44:35.799Z,7.13
2022-08-26T12:47:10.411Z,9.93
2022-08-26T12:49:40.671Z,6.28
2022-08-26T12:52:29.954Z,16.45
2022-08-26T12:55:01.227Z,12.27
2022-08-26T12:57:35.093Z,14.07
2022-08-26T13:00:30.252Z,8.35
2022-08-26T13:03:01.778Z,8.40
2022-08-26T13:05:35.489Z,12.88
2022-08-26T13:08:25.810Z,11.63
2022-08-26T13:11:10.358Z,9.55
2022-08-26T13:13:40.339Z,10.50
2022-08-26T13:16:09.033Z,10.13
2022-08-26T13:18:38.720Z,9.10
2022-08-26T13:21:13.986Z,10.45
2022-08-26T13:23:42.610Z,9.52
2022-08-26T13:26:10.550Z,10.57
2022-08-26T13:28:38.881Z,12.38
2022-08-26T13:31:07.449Z,9.85
2022-08-26T13:33:35.863Z,8.02
2022-08-26T13:36:06.463Z,9.07
2022-08-26T13:38:34.376Z,7.20
2022-08-26T13:41:03.631Z,8.20
2022-08-26T13:43:32.652Z,14.57
2022-08-26T13:46:01.760Z,8.30
2022-08-26T13:48:29.708Z,9.00
2022-08-26T13:50:57.916Z,14.55
2022-08-26T13:53:29.187Z,8.45
2022-08-26T13:55:57.806Z,8.68
2022-08-26T13:58:26.091Z,8.57
2022-08-26T14:00:55.294Z,9.63
2022-08-26T14:03:24.601Z,11.45
2022-08-26T14:05:53.380Z,8.82
2022-08-26T14:08:22.412Z,10.10
2022-08-26T14:10:51.558Z,9.90
2022-08-26T14:13:19.559Z,8.55
2022-08-26T14:15:47.810Z,10.02
2022-08-26T14:18:22.177Z,11.75
2022-08-26T14:20:52.104Z,11.57
2022-08-26T14:23:20.068Z,9.85
2022-08-26T14:25:47.900Z,9.85
2022-08-26T14:28:17.144Z,10.20
2022-08-26T14:30:52.034Z,9.65
2022-08-26T14:33:26.713Z,12.82
2022-08-26T14:36:14.703Z,9.88
2022-08-26T14:38:42.607Z,11.13
2022-08-26T14:41:11.727Z,8.52
2022-08-26T14:43:48.190Z,12.45
2022-08-26T14:46:18.275Z,9.75
2022-08-26T14:48:46.647Z,11.18
2022-08-26T14:51:14.491Z,8.77
2022-08-26T14:54:00.014Z,12.82
2022-08-26T14:56:29.556Z,10.27
2022-08-26T14:58:58.720Z,10.00
2022-08-26T15:01:30.759Z,9.93
2022-08-26T15:03:59.536Z,9.32
2022-08-26T15:06:27.994Z,9.23
2022-08-26T15:08:55.842Z,13.23
2022-08-26T15:11:23.848Z,12.75
2022-08-26T15:13:52.601Z,14.55
2022-08-26T15:16:22.840Z,11.27
2022-08-26T15:18:52.207Z,12.18
2022-08-26T15:21:20.892Z,13.75
2022-08-26T15:23:50.427Z,12.60
2022-08-26T15:26:19.110Z,9.40
2022-08-26T15:28:47.422Z,9.27
2022-08-26T15:31:17.185Z,8.73
2022-08-26T15:33:47.102Z,8.68
2022-08-26T15:36:14.997Z,13.98
2022-08-26T15:38:43.311Z,11.02
2022-08-26T15:41:11.756Z,10.13
2022-08-26T15:43:39.709Z,8.15
2022-08-26T15:46:12.768Z,11.88
2022-08-26T15:48:41.400Z,11.93
2022-08-26T15:51:23.056Z,11.95
2022-08-26T15:53:51.170Z,12.70
2022-08-26T15:56:22.297Z,13.85
2022-08-26T15:58:50.558Z,14.38
2022-08-26T16:01:27.212Z,18.08
2022-08-26T16:03:56.634Z,13.75
2022-08-26T16:06:30.661Z,12.00
2022-08-26T16:08:59.229Z,11.68
2022-08-26T16:11:29.070Z,10.35
2022-08-26T16:13:57.270Z,10.95
2022-08-26T16:16:25.767Z,12.68
2022-08-26T16:18:54.743Z,13.55
2022-08-26T16:21:28.577Z,11.05
2022-08-26T16:23:58.397Z,11.38
2022-08-26T16:26:29.659Z,11.38
2022-08-26T16:28:57.493Z,11.18
2022-08-26T16:31:25.537Z,11.75
2022-08-26T16:33:53.409Z,12.15
2022-08-26T16:36:21.274Z,9.82
2022-08-26T16:38:56.095Z,11.15
2022-08-26T16:41:25.871Z,10.40
2022-08-26T16:43:53.868Z,13.35
2022-08-26T16:46:23.651Z,12.32
2022-08-26T16:48:52.324Z,10.40
2022-08-26T16:51:23.294Z,9.80
2022-08-26T16:53:53.757Z,10.45
2022-08-26T16:56:33.482Z,12.45
2022-08-26T16:59:04.079Z,17.40
2022-08-26T17:01:31.999Z,40.13
2022-08-26T17:03:59.921Z,12.88
2022-08-26T17:06:27.971Z,13.27
2022-08-26T17:08:57.133Z,10.57
2022-08-26T17:11:24.991Z,13.20
2022-08-26T17:13:52.948Z,10.25
2022-08-26T17:16:26.390Z,9.88
2022-08-26T17:18:55.679Z,14.40
2022-08-26T17:21:23.640Z,12.75
2022-08-26T17:23:51.833Z,14.40
2022-08-26T17:26:21.661Z,14.05
2022-08-26T17:28:50.615Z,16.40
2022-08-26T17:31:18.973Z,21.10
2022-08-26T17:33:50.357Z,17.77
2022-08-26T17:36:27.699Z,11.30
2022-08-26T17:38:57.204Z,14.70
2022-08-26T17:41:27.692Z,12.25
2022-08-26T17:43:55.678Z,33.15
2022-08-26T17:46:24.327Z,15.65
2022-08-26T17:48:52.367Z,15.07
2022-08-26T17:51:21.916Z,14.20
2022-08-26T17:53:50.768Z,14.65
2022-08-26T17:56:24.940Z,13.95
2022-08-26T17:58:57.681Z,17.67
2022-08-26T18:01:30.737Z,17.08
2022-08-26T18:04:00.585Z,15.55
2022-08-26T18:06:30.489Z,15.57
2022-08-26T18:08:59.242Z,15.45
2022-08-26T18:11:28.266Z,13.00
2022-08-26T18:13:57.640Z,14.02
2022-08-26T18:16:25.988Z,13.18
2022-08-26T18:18:55.492Z,10.82
2022-08-26T18:21:28.567Z,12.73
2022-08-26T18:23:56.905Z,12.30
2022-08-26T18:26:28.291Z,9.02
2022-08-26T18:28:58.065Z,9.50
2022-08-26T18:31:27.219Z,13.48
2022-08-26T18:33:55.993Z,14.98
2022-08-26T18:36:28.089Z,13.82
2022-08-26T18:38:57.017Z,12.93
2022-08-26T18:41:28.720Z,12.80
2022-08-26T18:43:58.671Z,22.55
2022-08-26T18:46:29.058Z,60.60
2022-08-26T18:48:58.572Z,16.83
2022-08-26T18:51:30.178Z,14.52
2022-08-26T18:53:59.694Z,9.93
2022-08-26T18:56:29.014Z,11.43
2022-08-26T18:58:59.785Z,11.93
2022-08-26T19:01:30.101Z,14.57
2022-08-26T19:04:00.091Z,14.13
2022-08-26T19:06:32.853Z,12.05
2022-08-26T19:09:01.401Z,13.93
2022-08-26T19:11:32.557Z,12.05
2022-08-26T19:14:09.286Z,10.82
2022-08-26T19:16:38.618Z,9.82
2022-08-26T19:19:07.351Z,13.32
2022-08-26T19:21:37.888Z,13.73
2022-08-26T19:24:17.402Z,14.00
2022-08-26T19:26:47.432Z,15.57
2022-08-26T19:31:51.078Z,17.13
2022-08-26T19:34:20.899Z,17.05
2022-08-26T19:36:49.368Z,11.60
2022-08-26T19:39:24.366Z,9.48
2022-08-26T19:41:52.629Z,12.82
2022-08-26T19:44:41.821Z,9.85
2022-08-26T19:47:12.947Z,9.90
2022-08-26T19:49:41.102Z,11.52
2022-08-26T19:52:10.990Z,10.75
2022-08-26T19:54:44.596Z,11.50
2022-08-26T19:57:20.206Z,10.32
2022-08-26T19:59:49.690Z,13.20
2022-08-26T20:02:18.147Z,10.98
2022-08-26T20:04:46.296Z,11.02
2022-08-26T20:07:18.555Z,10.57
2022-08-26T20:09:49.170Z,11.68
2022-08-26T20:12:18.681Z,10.90
2022-08-26T20:14:46.776Z,9.05
2022-08-26T20:17:17.030Z,10.07
2022-08-26T20:20:03.074Z,9.60
2022-08-26T20:22:32.091Z,15.23
2022-08-26T20:25:00.348Z,12.73
2022-08-26T20:27:34.352Z,16.05
2022-08-26T20:30:11.263Z,10.77
2022-08-26T20:32:42.495Z,13.52
2022-08-26T20:35:14.261Z,12.55
2022-08-26T20:37:43.265Z,14.27
2022-08-26T20:40:14.053Z,16.88
2022-08-26T20:42:43.697Z,13.00
2022-08-26T20:45:13.349Z,14.23
2022-08-26T20:47:43.846Z,15.40
2022-08-26T20:50:11.767Z,19.75
2022-08-26T20:52:39.642Z,17.27
2022-08-26T20:55:08.645Z,19.85
2022-08-26T20:57:38.392Z,21.63
2022-08-26T21:00:08.306Z,14.55
2022-08-26T21:02:36.964Z,13.80
2022-08-26T21:05:10.700Z,19.50
2022-08-26T21:07:39.342Z,22.90
2022-08-26T21:10:08.535Z,11.68
2022-08-26T21:12:36.501Z,13.13
2022-08-26T21:15:08.332Z,10.88
2022-08-26T21:17:36.272Z,13.68
2022-08-26T21:20:09.490Z,13.52
2022-08-26T21:22:37.359Z,11.80
2022-08-26T21:25:09.222Z,11.18
2022-08-26T21:27:38.339Z,9.93
2022-08-26T21:30:08.155Z,14.35
2022-08-26T21:32:36.453Z,51.38
2022-08-26T21:35:06.146Z,19.30
2022-08-26T21:37:34.365Z,19.33
2022-08-26T21:40:04.055Z,15.40
2022-08-26T21:42:36.827Z,13.50
2022-08-26T21:45:07.654Z,23.25
2022-08-26T21:47:38.458Z,13.35
2022-08-26T21:50:10.285Z,13.57
2022-08-26T21:52:39.324Z,11.27
2022-08-26T21:55:09.274Z,20.00
2022-08-26T21:57:39.894Z,11.23
2022-08-26T22:00:13.026Z,15.60
2022-08-26T22:02:41.029Z,12.18
2022-08-26T22:05:11.086Z,10.60
2022-08-26T22:07:38.954Z,11.38
2022-08-26T22:10:08.153Z,10.82
2022-08-26T22:12:36.130Z,17.70
2022-08-26T22:15:04.676Z,29.27
2022-08-26T22:17:32.508Z,15.88
2022-08-26T22:20:00.525Z,21.73
2022-08-26T22:22:29.933Z,22.40
2022-08-26T22:24:57.967Z,12.52
2022-08-26T22:27:26.320Z,15.30
2022-08-26T22:29:54.176Z,21.02
2022-08-26T22:32:22.816Z,16.00
2022-08-26T22:34:50.653Z,15.00
2022-08-26T22:37:18.549Z,15.02
2022-08-26T22:39:47.847Z,17.60
2022-08-26T22:42:16.034Z,11.50
2022-08-26T22:44:44.069Z,19.92
2022-08-26T22:47:12.064Z,15.02
2022-08-26T22:49:39.996Z,12.85
2022-08-26T22:52:07.929Z,10.98
2022-08-26T22:54:35.800Z,10.27
2022-08-26T22:57:05.603Z,9.93
2022-08-26T22:59:33.717Z,9.82
2022-08-26T23:02:01.947Z,9.40
2022-08-26T23:04:30.061Z,9.20
2022-08-26T23:06:58.272Z,11.40
2022-08-26T23:09:26.139Z,9.68
2022-08-26T23:11:55.869Z,9.50
2022-08-26T23:14:26.961Z,9.50
2022-08-26T23:16:55.084Z,9.40
2022-08-26T23:19:24.364Z,10.30
2022-08-26T23:21:52.869Z,11.05
2022-08-26T23:24:21.104Z,11.25
2022-08-26T23:26:50.001Z,11.93
2022-08-26T23:29:18.093Z,12.32
2022-08-26T23:31:47.562Z,15.32
2022-08-26T23:34:33.021Z,12.60
2022-08-26T23:37:01.263Z,12.27
2022-08-26T23:39:29.466Z,16.30
2022-08-26T23:41:58.017Z,13.80
2022-08-26T23:44:26.632Z,13.52
2022-08-26T23:46:56.420Z,14.90
2022-08-26T23:49:25.371Z,15.52
2022-08-26T23:52:11.501Z,16.05
2022-08-26T23:54:40.505Z,13.32
2022-08-26T23:57:09.328Z,18.63
2022-08-26T23:59:38.563Z,21.15
